Time;durP1;ratioP1;P1;durP2;ratioP2;P2;SDS_P1;SDS_P2;PMS_P1;PMS_P2;Temp;Humidity;BMP_temperature;BMP_pressure;BME280_temperature;BME280_humidity;BME280_pressure;Samples;Min_cycle;Max_cycle;Signal;HPM_P1;HPM_P2
2022/07/07 00:00:14;;;;;;;;;;;;;;;24.95;49.16;100283.66;2056859;28;19928;-53
2022/07/07 00:01:15;;;;;;;;;;;;;;;24.95;49.30;100283.66;2050685;28;19917;-53
2022/07/07 00:02:16;;;;;;;;;;;;;;;24.95;49.19;100289.19;2054493;28;20060;-53
2022/07/07 00:03:16;;;;;;;;;;;;;;;24.95;49.18;100292.78;2057940;28;19917;-54
2022/07/07 00:04:17;;;;;;;;;;;;;;;24.96;49.26;100293.63;2055028;28;19928;-53
2022/07/07 00:05:18;;;;;;;;;;;;;;;24.95;49.37;100291.94;2055835;28;20004;-53
2022/07/07 00:06:18;;;;;;;;;;;;;;;24.94;49.34;100291.09;2058064;28;19914;-53
2022/07/07 00:07:19;;;;;;;;;;;;;;;24.95;49.31;100291.94;2056428;28;19913;-53
2022/07/07 00:08:19;;;;;;;;;;;;;;;24.95;49.18;100291.94;2057930;28;19914;-54
2022/07/07 00:09:20;;;;;;;;;;;;;;;24.95;49.42;100289.19;2059272;28;19913;-53
2022/07/07 00:10:20;;;;;;;;;;;;;;;24.94;49.39;100288.34;2053573;28;20309;-53
2022/07/07 00:11:21;;;;;;;;;;;;;;;24.95;49.22;100286.44;2050344;28;19910;-53
2022/07/07 00:12:22;;;;;;;;;;;;;;;24.94;49.28;100287.44;2052145;28;19918;-53
2022/07/07 00:13:22;;;;;;;;;;;;;;;24.95;49.53;100291.94;2059127;28;19914;-53
2022/07/07 00:14:23;;;;;;;;;;;;;;;24.95;49.15;100289.19;2059387;28;19924;-53
2022/07/07 00:15:23;;;;;;;;;;;;;;;24.94;49.23;100288.34;2054899;28;19914;-52
2022/07/07 00:16:24;;;;;;;;;;;;;;;24.94;49.23;100292.97;2057286;28;19924;-53
2022/07/07 00:17:24;;;;;;;;;;;;;;;24.94;49.43;100295.72;2059380;28;20005;-53
2022/07/07 00:18:25;;;;;;;;;;;;;;;24.94;49.26;100299.38;2056750;28;19932;-53
2022/07/07 00:19:25;;;;;;;;;;;;;;;24.94;49.19;100299.38;2059159;28;19972;-53
2022/07/07 00:20:26;;;;;;;;;;;;;;;24.95;49.08;100305.72;2059777;28;19917;-53
2022/07/07 00:21:26;;;;;;;;;;;;;;;24.95;49.51;100302.97;2061281;28;19921;-53
2022/07/07 00:22:27;;;;;;;;;;;;;;;24.96;49.46;100301.91;2058477;28;19913;-53
2022/07/07 00:23:27;;;;;;;;;;;;;;;24.96;49.23;100307.44;2056085;28;20023;-53
2022/07/07 00:24:27;;;;;;;;;;;;;;;24.95;49.37;100300.22;2055993;28;19953;-53
2022/07/07 00:25:28;;;;;;;;;;;;;;;24.95;49.33;100308.47;2057658;28;19918;-53
2022/07/07 00:26:30;;;;;;;;;;;;;;;24.95;49.42;100308.47;2056026;28;20003;-53
2022/07/07 00:27:30;;;;;;;;;;;;;;;24.95;49.42;100303.81;2059628;28;19917;-53
2022/07/07 00:28:31;;;;;;;;;;;;;;;24.95;49.46;100305.72;2052046;28;19925;-53
2022/07/07 00:29:31;;;;;;;;;;;;;;;24.95;49.39;100306.56;2058046;28;19928;-53
2022/07/07 00:30:31;;;;;;;;;;;;;;;24.97;49.20;100306.41;2060837;28;20442;-53
2022/07/07 00:31:32;;;;;;;;;;;;;;;24.96;49.56;100307.44;2059345;28;20745;-53
2022/07/07 00:32:32;;;;;;;;;;;;;;;24.97;49.39;100311.94;2062021;28;19928;-53
2022/07/07 00:33:32;;;;;;;;;;;;;;;24.96;49.43;100312.94;2058513;28;19968;-53
2022/07/07 00:34:33;;;;;;;;;;;;;;;24.97;49.51;100314.69;2059249;28;20640;-53
2022/07/07 00:35:33;;;;;;;;;;;;;;;24.97;49.50;100304.50;2060163;28;19921;-53
2022/07/07 00:36:34;;;;;;;;;;;;;;;24.97;49.60;100311.94;2060195;28;19920;-53
2022/07/07 00:37:34;;;;;;;;;;;;;;;24.98;49.68;100310.88;2060753;28;19909;-53
2022/07/07 00:38:34;;;;;;;;;;;;;;;24.98;49.59;100310.88;2060126;28;19925;-53
2022/07/07 00:39:35;;;;;;;;;;;;;;;24.98;49.82;100317.22;2059791;28;19967;-54
2022/07/07 00:40:35;;;;;;;;;;;;;;;24.97;49.79;100303.66;2054977;28;19932;-53
2022/07/07 00:41:36;;;;;;;;;;;;;;;24.97;49.68;100306.41;2059374;28;19918;-53
2022/07/07 00:42:36;;;;;;;;;;;;;;;24.97;49.65;100315.53;2057934;28;19918;-55
2022/07/07 00:43:37;;;;;;;;;;;;;;;24.98;49.73;100310.88;2060778;28;19928;-53
2022/07/07 00:44:38;;;;;;;;;;;;;;;24.97;49.69;100314.69;2060952;28;20016;-53
2022/07/07 00:45:38;;;;;;;;;;;;;;;24.96;49.75;100308.31;2058162;28;20312;-53
2022/07/07 00:46:42;;;;;;;;;;;;;;;24.97;49.63;100306.41;2060730;28;19914;-53
2022/07/07 00:47:42;;;;;;;;;;;;;;;24.97;49.66;100300.91;2056365;28;19918;-54
2022/07/07 00:48:43;;;;;;;;;;;;;;;24.98;49.91;100310.88;2062658;28;19917;-53
2022/07/07 00:49:43;;;;;;;;;;;;;;;24.97;49.74;100303.66;2048780;28;20455;-54
2022/07/07 00:50:44;;;;;;;;;;;;;;;24.98;50.07;100302.59;2053027;28;20360;-54
2022/07/07 00:51:45;;;;;;;;;;;;;;;24.97;49.75;100306.41;2060835;28;19957;-53
2022/07/07 00:52:46;;;;;;;;;;;;;;;24.97;50.08;100303.66;2056996;28;19925;-53
2022/07/07 00:53:46;;;;;;;;;;;;;;;24.97;50.28;100314.69;2059086;28;20682;-53
2022/07/07 00:54:50;;;;;;;;;;;;;;;24.97;50.26;100306.41;2061250;28;20315;-53
2022/07/07 00:55:50;;;;;;;;;;;;;;;24.97;50.19;100300.91;2057219;28;19917;-53
2022/07/07 00:56:51;;;;;;;;;;;;;;;24.97;50.32;100309.16;2057949;28;20514;-53
2022/07/07 00:57:51;;;;;;;;;;;;;;;24.97;50.35;100307.25;2060268;28;19917;-53
2022/07/07 00:58:51;;;;;;;;;;;;;;;24.96;50.67;100304.66;2060634;28;19952;-53
2022/07/07 00:59:55;;;;;;;;;;;;;;;24.97;50.45;100309.16;2062563;28;20315;-53
2022/07/07 01:00:55;;;;;;;;;;;;;;;24.97;50.52;100312.78;2060104;28;19921;-53
2022/07/07 01:01:56;;;;;;;;;;;;;;;24.96;50.59;100316.59;2057234;28;20016;-53
2022/07/07 01:02:57;;;;;;;;;;;;;;;24.96;50.70;100305.56;2054254;28;20020;-53
2022/07/07 01:03:59;;;;;;;;;;;;;;;24.97;50.59;100311.94;2061328;28;19926;-53
2022/07/07 01:05:00;;;;;;;;;;;;;;;24.96;50.87;100307.44;2052574;28;19922;-53
2022/07/07 01:06:02;;;;;;;;;;;;;;;24.97;50.67;100309.16;2055575;28;20273;-53
2022/07/07 01:07:02;;;;;;;;;;;;;;;24.96;50.66;100313.84;2063563;28;19925;-53
2022/07/07 01:08:04;;;;;;;;;;;;;;;24.96;50.72;100302.81;2055797;28;19913;-53
2022/07/07 01:09:04;;;;;;;;;;;;;;;24.96;50.61;100308.31;2053687;28;20692;-53
2022/07/07 01:10:06;;;;;;;;;;;;;;;24.97;50.57;100309.16;2059943;28;19924;-53
2022/07/07 01:11:06;;;;;;;;;;;;;;;24.97;50.55;100303.66;2058431;28;19992;-53
2022/07/07 01:12:06;;;;;;;;;;;;;;;24.96;50.58;100311.06;2063043;28;19995;-53
2022/07/07 01:13:07;;;;;;;;;;;;;;;24.97;50.68;100303.66;2059358;28;20325;-54
2022/07/07 01:14:07;;;;;;;;;;;;;;;24.97;50.55;100311.94;2060372;28;19918;-53
2022/07/07 01:15:09;;;;;;;;;;;;;;;24.97;50.45;100306.41;2056344;28;19921;-53
2022/07/07 01:16:09;;;;;;;;;;;;;;;24.97;50.52;100312.78;2056237;28;20242;-53
2022/07/07 01:17:09;;;;;;;;;;;;;;;24.96;50.52;100308.31;2061516;28;20462;-53
2022/07/07 01:18:10;;;;;;;;;;;;;;;24.97;50.43;100309.16;2053032;28;20304;-53
2022/07/07 01:19:10;;;;;;;;;;;;;;;24.96;50.70;100313.84;2054669;28;20028;-53
2022/07/07 01:20:11;;;;;;;;;;;;;;;24.97;50.74;100311.94;2061662;28;19957;-53
2022/07/07 01:21:13;;;;;;;;;;;;;;;24.97;50.60;100309.16;2059429;28;20495;-53
2022/07/07 01:22:14;;;;;;;;;;;;;;;24.97;50.47;100306.41;2060697;28;19995;-53
2022/07/07 01:23:14;;;;;;;;;;;;;;;24.97;50.63;100300.91;2054105;28;20282;-54
2022/07/07 01:24:15;;;;;;;;;;;;;;;24.95;50.60;100309.34;2058543;28;19913;-53
2022/07/07 01:25:15;;;;;;;;;;;;;;;24.97;50.67;100306.41;2061333;28;19970;-53
2022/07/07 01:26:15;;;;;;;;;;;;;;;24.97;50.78;100309.16;2059336;28;19909;-53
2022/07/07 01:27:17;;;;;;;;;;;;;;;24.96;50.75;100312.94;2060881;28;19943;-54
2022/07/07 01:28:17;;;;;;;;;;;;;;;24.95;50.61;100305.72;2061389;28;19929;-53
2022/07/07 01:29:17;;;;;;;;;;;;;;;24.96;50.64;100307.44;2061442;28;19920;-53
2022/07/07 01:30:18;;;;;;;;;;;;;;;24.95;50.79;100306.56;2060609;28;19913;-53
2022/07/07 01:31:19;;;;;;;;;;;;;;;24.97;50.68;100306.41;2059038;28;19960;-53
2022/07/07 01:32:20;;;;;;;;;;;;;;;24.95;50.77;100312.09;2055636;28;19918;-53
2022/07/07 01:33:20;;;;;;;;;;;;;;;24.96;50.71;100310.19;2061366;28;19921;-53
2022/07/07 01:34:20;;;;;;;;;;;;;;;24.97;50.59;100312.78;2061266;28;19917;-53
2022/07/07 01:35:21;;;;;;;;;;;;;;;24.95;50.60;100312.09;2061004;28;19945;-54
2022/07/07 01:36:21;;;;;;;;;;;;;;;24.96;50.59;100310.19;2059815;28;19909;-53
2022/07/07 01:37:24;;;;;;;;;;;;;;;24.96;50.87;100312.94;2059113;28;19918;-53
2022/07/07 01:38:24;;;;;;;;;;;;;;;24.96;50.75;100312.94;2059120;28;19921;-53
2022/07/07 01:39:25;;;;;;;;;;;;;;;24.95;50.98;100308.47;2060831;28;19968;-53
2022/07/07 01:40:25;;;;;;;;;;;;;;;24.96;50.80;100312.94;2059152;28;19921;-53
2022/07/07 01:41:26;;;;;;;;;;;;;;;24.96;50.96;100315.69;2057964;28;19914;-53
2022/07/07 01:42:26;;;;;;;;;;;;;;;24.95;51.05;100311.25;2056031;28;19918;-53
2022/07/07 01:43:26;;;;;;;;;;;;;;;24.95;50.90;100309.34;2059374;28;19926;-53
2022/07/07 01:44:26;;;;;;;;;;;;;;;24.95;51.05;100306.56;2056664;28;20379;-53
2022/07/07 01:45:27;;;;;;;;;;;;;;;24.96;51.17;100307.44;2052998;28;20539;-53
2022/07/07 01:46:27;;;;;;;;;;;;;;;24.95;51.14;100303.81;2054999;28;19968;-54
2022/07/07 01:47:27;;;;;;;;;;;;;;;24.96;51.03;100312.94;2059826;28;19967;-53
2022/07/07 01:48:28;;;;;;;;;;;;;;;24.95;51.02;100311.25;2061383;28;19957;-53
2022/07/07 01:49:29;;;;;;;;;;;;;;;24.95;51.09;100316.75;2059654;28;19921;-53
2022/07/07 01:50:29;;;;;;;;;;;;;;;24.95;51.14;100311.25;2058287;28;20033;-53
2022/07/07 01:51:30;;;;;;;;;;;;;;;24.95;50.96;100312.09;2062677;28;19924;-53
2022/07/07 01:52:31;;;;;;;;;;;;;;;24.94;50.92;100317.78;2059427;28;19955;-54
2022/07/07 01:53:31;;;;;;;;;;;;;;;24.95;51.17;100320.38;2061311;28;20430;-53
2022/07/07 01:54:32;;;;;;;;;;;;;;;24.95;50.95;100316.75;2053590;28;20178;-53
2022/07/07 01:55:33;;;;;;;;;;;;;;;24.94;51.13;100315.91;2056153;28;20147;-53
2022/07/07 01:56:34;;;;;;;;;;;;;;;24.95;51.26;100316.75;2060065;28;20401;-53
2022/07/07 01:57:34;;;;;;;;;;;;;;;24.95;51.19;100322.28;2055872;28;19924;-53
2022/07/07 01:58:34;;;;;;;;;;;;;;;24.95;51.25;100323.13;2053655;28;19918;-53
2022/07/07 01:59:36;;;;;;;;;;;;;;;24.95;51.03;100323.13;2059569;28;19997;-53
2022/07/07 02:00:36;;;;;;;;;;;;;;;24.95;51.03;100327.78;2057603;28;19976;-53
2022/07/07 02:01:36;;;;;;;;;;;;;;;24.95;51.18;100323.13;2055976;28;19940;-53
2022/07/07 02:02:36;;;;;;;;;;;;;;;24.95;51.19;100327.78;2059786;28;20250;-53
2022/07/07 02:03:37;;;;;;;;;;;;;;;24.95;51.18;100325.88;2059401;28;20315;-54
2022/07/07 02:04:37;;;;;;;;;;;;;;;24.96;51.20;100323.97;2053992;28;19914;-53
2022/07/07 02:05:37;;;;;;;;;;;;;;;24.95;51.18;100322.28;2054859;28;19917;-53
2022/07/07 02:06:40;;;;;;;;;;;;;;;24.95;51.11;100325.03;2054060;28;19918;-53
2022/07/07 02:07:41;;;;;;;;;;;;;;;24.95;51.16;100339.66;2054265;28;19917;-53
2022/07/07 02:08:41;;;;;;;;;;;;;;;24.96;51.25;100332.25;2054437;28;19960;-53
2022/07/07 02:09:41;;;;;;;;;;;;;;;24.95;51.20;100330.53;2052723;28;20281;-53
2022/07/07 02:12:01;;;;;;;;;;;;;;;24.95;51.24;100333.31;2058895;28;19988;-53
2022/07/07 02:13:01;;;;;;;;;;;;;;;24.94;51.15;100331.56;2057500;28;20478;-53
2022/07/07 02:14:02;;;;;;;;;;;;;;;24.95;51.11;100338.81;2060416;28;19914;-54
2022/07/07 02:15:02;;;;;;;;;;;;;;;24.94;51.12;100337.97;2060887;28;19917;-54
2022/07/07 02:16:03;;;;;;;;;;;;;;;24.95;51.26;100336.06;2059051;28;21575;-53
2022/07/07 02:17:03;;;;;;;;;;;;;;;24.94;51.08;100337.09;2060902;28;19964;-53
2022/07/07 02:18:04;;;;;;;;;;;;;;;24.94;51.21;100334.31;2058546;28;19975;-53
2022/07/07 02:19:06;;;;;;;;;;;;;;;24.95;51.21;100338.81;2059723;28;19926;-53
2022/07/07 02:20:06;;;;;;;;;;;;;;;24.96;51.16;100343.28;2059118;28;20232;-53
2022/07/07 02:21:08;;;;;;;;;;;;;;;24.94;51.17;100337.09;2059472;28;19932;-53
2022/07/07 02:22:09;;;;;;;;;;;;;;;24.94;51.30;100343.47;2060491;28;20012;-53
2022/07/07 02:23:09;;;;;;;;;;;;;;;24.94;51.33;100337.09;2060112;28;19917;-53
2022/07/07 02:24:10;;;;;;;;;;;;;;;24.94;51.18;100334.31;2059131;28;20730;-53
2022/07/07 02:25:10;;;;;;;;;;;;;;;24.94;51.43;100337.97;2061569;28;19948;-54
2022/07/07 02:26:11;;;;;;;;;;;;;;;24.94;51.19;100337.09;2058269;28;19979;-53
2022/07/07 02:27:13;;;;;;;;;;;;;;;24.94;51.42;100337.09;2063304;28;19932;-53
2022/07/07 02:28:13;;;;;;;;;;;;;;;24.93;51.34;100340.91;2056060;28;19968;-53
2022/07/07 02:29:13;;;;;;;;;;;;;;;24.93;51.29;100336.22;2058300;28;20228;-53
2022/07/07 02:30:14;;;;;;;;;;;;;;;24.93;51.30;100341.75;2052532;28;20389;-53
2022/07/07 02:31:14;;;;;;;;;;;;;;;24.94;51.33;100337.97;2055191;28;19925;-53
2022/07/07 02:32:15;;;;;;;;;;;;;;;24.95;51.48;100338.81;2061603;28;19940;-53
2022/07/07 02:33:15;;;;;;;;;;;;;;;24.94;51.35;100339.84;2060457;28;20214;-54
2022/07/07 02:34:15;;;;;;;;;;;;;;;24.94;51.50;100337.09;2061410;28;19932;-53
2022/07/07 02:35:16;;;;;;;;;;;;;;;24.93;51.31;100340.91;2061055;28;19957;-52
2022/07/07 02:36:16;;;;;;;;;;;;;;;24.93;51.42;100335.38;2059978;28;20245;-53
2022/07/07 02:37:16;;;;;;;;;;;;;;;24.94;51.51;100331.56;2060544;28;20386;-54
2022/07/07 02:38:17;;;;;;;;;;;;;;;24.93;51.30;100336.22;2059791;28;20224;-53
2022/07/07 02:39:18;;;;;;;;;;;;;;;24.94;51.22;100331.56;2058763;28;20252;-54
2022/07/07 02:40:18;;;;;;;;;;;;;;;24.94;51.30;100342.59;2061113;28;20032;-53
2022/07/07 02:41:19;;;;;;;;;;;;;;;24.94;51.45;100334.31;2058858;28;19949;-53
2022/07/07 02:42:20;;;;;;;;;;;;;;;24.94;51.38;100339.84;2059808;28;19929;-53
2022/07/07 02:43:20;;;;;;;;;;;;;;;24.93;51.72;100335.38;2061031;28;20667;-53
2022/07/07 02:44:20;;;;;;;;;;;;;;;24.94;51.44;100342.59;2059882;28;19918;-53
2022/07/07 02:45:20;;;;;;;;;;;;;;;24.93;51.50;100339.00;2061072;28;20014;-53
2022/07/07 02:46:21;;;;;;;;;;;;;;;24.93;51.64;100341.75;2060953;28;19913;-53
2022/07/07 02:47:21;;;;;;;;;;;;;;;24.95;51.48;100344.34;2058136;28;20004;-53
2022/07/07 02:48:22;;;;;;;;;;;;;;;24.94;51.61;100342.59;2060964;28;19918;-53
2022/07/07 02:49:23;;;;;;;;;;;;;;;24.93;51.49;100338.13;2058890;28;20217;-53
2022/07/07 02:50:23;;;;;;;;;;;;;;;24.93;51.37;100340.91;2056940;28;19967;-53
2022/07/07 02:51:24;;;;;;;;;;;;;;;24.94;51.42;100345.34;2060726;28;20231;-53
2022/07/07 02:52:24;;;;;;;;;;;;;;;24.94;51.41;100348.13;2061154;28;20315;-52
2022/07/07 02:53:24;;;;;;;;;;;;;;;24.94;51.60;100359.13;2060759;28;19948;-53
2022/07/07 02:54:25;;;;;;;;;;;;;;;24.93;51.54;100347.25;2058627;28;19921;-53
2022/07/07 02:55:25;;;;;;;;;;;;;;;24.93;51.35;100346.41;2058294;28;19924;-53
2022/07/07 02:56:25;;;;;;;;;;;;;;;24.93;51.67;100350.03;2051741;28;19968;-53
2022/07/07 02:57:26;;;;;;;;;;;;;;;24.93;51.40;100351.94;2059415;28;19964;-53
2022/07/07 02:58:26;;;;;;;;;;;;;;;24.92;51.53;100351.06;2060973;28;19917;-53
2022/07/07 02:59:26;;;;;;;;;;;;;;;24.93;51.67;100351.94;2062595;28;19917;-54
2022/07/07 03:00:27;;;;;;;;;;;;;;;24.93;51.66;100358.28;2059818;28;21003;-53
2022/07/07 03:01:28;;;;;;;;;;;;;;;24.93;51.54;100357.44;2060120;28;20262;-53
2022/07/07 03:02:28;;;;;;;;;;;;;;;24.93;51.45;100346.41;2056912;28;19926;-53
2022/07/07 03:03:28;;;;;;;;;;;;;;;24.93;51.63;100350.03;2054354;28;19920;-53
2022/07/07 03:04:28;;;;;;;;;;;;;;;24.93;51.71;100349.16;2052316;28;20244;-53
2022/07/07 03:05:29;;;;;;;;;;;;;;;24.93;51.58;100357.44;2058116;28;19956;-53
2022/07/07 03:06:29;;;;;;;;;;;;;;;24.92;51.53;100355.72;2053791;28;20304;-53
2022/07/07 03:07:29;;;;;;;;;;;;;;;24.93;51.58;100357.44;2060683;28;19913;-53
2022/07/07 03:08:30;;;;;;;;;;;;;;;24.93;51.68;100357.44;2059399;28;20912;-53
2022/07/07 03:09:30;;;;;;;;;;;;;;;24.92;51.80;100358.50;2060969;28;19910;-52
2022/07/07 03:10:30;;;;;;;;;;;;;;;24.92;51.60;100355.72;2058696;28;19909;-53
2022/07/07 03:11:30;;;;;;;;;;;;;;;24.92;51.73;100355.72;2059317;28;19913;-53
2022/07/07 03:12:31;;;;;;;;;;;;;;;24.92;51.50;100352.97;2060876;28;19932;-53
2022/07/07 03:13:31;;;;;;;;;;;;;;;24.91;51.60;100359.50;2051607;28;20433;-51
2022/07/07 03:14:32;;;;;;;;;;;;;;;24.92;51.51;100350.22;2053229;28;19913;-53
2022/07/07 03:15:32;;;;;;;;;;;;;;;24.91;51.52;100346.56;2059057;28;20236;-53
2022/07/07 03:16:32;;;;;;;;;;;;;;;24.91;51.67;100354.84;2061154;28;19963;-53
2022/07/07 03:17:33;;;;;;;;;;;;;;;24.91;51.65;100352.09;2055177;28;19917;-53
2022/07/07 03:18:33;;;;;;;;;;;;;;;24.92;51.74;100355.72;2057709;28;19977;-53
2022/07/07 03:19:34;;;;;;;;;;;;;;;24.91;51.77;100354.84;2052664;28;19963;-53
2022/07/07 03:20:35;;;;;;;;;;;;;;;24.92;51.55;100358.50;2060562;28;20060;-53
2022/07/07 03:21:35;;;;;;;;;;;;;;;24.92;51.87;100366.75;2059898;28;19918;-53
2022/07/07 03:22:35;;;;;;;;;;;;;;;24.92;51.59;100355.72;2057783;28;20292;-53
2022/07/07 03:23:35;;;;;;;;;;;;;;;24.91;51.75;100354.00;2060700;28;19917;-53
2022/07/07 03:24:36;;;;;;;;;;;;;;;24.92;51.64;100361.25;2059895;28;19917;-53
2022/07/07 03:25:37;;;;;;;;;;;;;;;24.92;51.77;100364.00;2059655;28;19918;-53
2022/07/07 03:26:37;;;;;;;;;;;;;;;24.90;51.82;100361.41;2047138;28;19917;-53
2022/07/07 03:27:38;;;;;;;;;;;;;;;24.91;51.89;100359.50;2052988;28;19922;-53
2022/07/07 03:28:38;;;;;;;;;;;;;;;24.91;51.85;100367.78;2060888;28;19917;-53
2022/07/07 03:29:38;;;;;;;;;;;;;;;24.91;51.62;100368.63;2057225;28;19975;-53
2022/07/07 03:30:39;;;;;;;;;;;;;;;24.91;51.67;100365.03;2056914;28;19922;-53
2022/07/07 03:31:39;;;;;;;;;;;;;;;24.92;51.75;100364.00;2060481;28;20340;-53
2022/07/07 03:32:39;;;;;;;;;;;;;;;24.91;51.68;100367.78;2060773;28;19917;-53
2022/07/07 03:33:39;;;;;;;;;;;;;;;24.91;51.67;100363.13;2060527;28;19924;-53
2022/07/07 03:34:40;;;;;;;;;;;;;;;24.92;51.87;100364.84;2059546;28;19924;-53
2022/07/07 03:35:40;;;;;;;;;;;;;;;24.91;51.69;100365.03;2061018;28;19917;-53
2022/07/07 03:36:40;;;;;;;;;;;;;;;24.91;51.74;100368.63;2053607;28;19918;-53
2022/07/07 03:37:41;;;;;;;;;;;;;;;24.92;51.88;100366.75;2053749;28;19977;-53
2022/07/07 03:38:41;;;;;;;;;;;;;;;24.91;51.82;100371.41;2059309;28;19925;-53
2022/07/07 03:39:41;;;;;;;;;;;;;;;24.91;51.73;100362.28;2059184;28;19939;-53
2022/07/07 03:40:42;;;;;;;;;;;;;;;24.91;51.70;100367.78;2064342;28;19967;-53
2022/07/07 03:41:42;;;;;;;;;;;;;;;24.90;51.92;100369.69;2059591;28;20252;-53
2022/07/07 03:42:42;;;;;;;;;;;;;;;24.90;51.85;100368.84;2060420;28;20329;-53
2022/07/07 03:43:43;;;;;;;;;;;;;;;24.90;52.03;100369.69;2052039;28;19925;-53
2022/07/07 03:44:43;;;;;;;;;;;;;;;24.90;51.77;100363.31;2055384;28;19972;-53
2022/07/07 03:45:44;;;;;;;;;;;;;;;24.90;51.85;100368.84;2055746;28;19941;-53
2022/07/07 03:46:44;;;;;;;;;;;;;;;24.90;51.99;100368.84;2059957;28;20012;-53
2022/07/07 03:47:45;;;;;;;;;;;;;;;24.90;51.85;100374.34;2058498;28;19947;-53
2022/07/07 03:48:45;;;;;;;;;;;;;;;24.90;51.91;100377.13;2061415;28;20404;-53
2022/07/07 03:49:45;;;;;;;;;;;;;;;24.90;51.82;100375.22;2056496;28;19918;-53
2022/07/07 03:50:45;;;;;;;;;;;;;;;24.90;51.97;100383.47;2059700;28;20894;-53
2022/07/07 03:51:46;;;;;;;;;;;;;;;24.90;51.98;100380.72;2054305;28;20376;-53
2022/07/07 03:52:46;;;;;;;;;;;;;;;24.89;51.86;100376.25;2057454;28;20093;-53
2022/07/07 03:53:47;;;;;;;;;;;;;;;24.91;51.98;100381.56;2054889;28;19941;-53
2022/07/07 03:54:47;;;;;;;;;;;;;;;24.90;51.91;100380.72;2055725;28;19940;-53
2022/07/07 03:55:47;;;;;;;;;;;;;;;24.90;51.99;100382.63;2057694;28;19918;-53
2022/07/07 03:56:47;;;;;;;;;;;;;;;24.89;51.87;100378.13;2058935;28;19940;-53
2022/07/07 03:57:48;;;;;;;;;;;;;;;24.90;52.11;100385.38;2058946;28;19921;-53
2022/07/07 03:58:48;;;;;;;;;;;;;;;24.90;51.84;100379.88;2060603;28;19936;-53
2022/07/07 03:59:48;;;;;;;;;;;;;;;24.89;52.10;100378.13;2059506;28;20405;-53
2022/07/07 04:00:49;;;;;;;;;;;;;;;24.89;51.88;100383.66;2060054;28;20614;-53
2022/07/07 04:01:49;;;;;;;;;;;;;;;24.90;52.05;100379.88;2054213;28;19948;-53
2022/07/07 04:02:49;;;;;;;;;;;;;;;24.89;52.07;100376.25;2057015;28;20407;-53
2022/07/07 04:03:49;;;;;;;;;;;;;;;24.89;51.94;100384.53;2057759;28;20005;-53
2022/07/07 04:04:50;;;;;;;;;;;;;;;24.89;52.15;100378.13;2059332;28;19918;-54
2022/07/07 04:05:50;;;;;;;;;;;;;;;24.89;52.15;100378.13;2060997;28;20232;-53
2022/07/07 04:06:50;;;;;;;;;;;;;;;24.89;51.90;100376.25;2059234;28;19977;-52
2022/07/07 04:07:50;;;;;;;;;;;;;;;24.89;52.22;100375.38;2059831;28;20312;-53
2022/07/07 04:08:51;;;;;;;;;;;;;;;24.89;52.02;100380.88;2060318;28;19917;-53
2022/07/07 04:09:51;;;;;;;;;;;;;;;24.89;52.16;100381.78;2058329;28;19925;-53
2022/07/07 04:10:52;;;;;;;;;;;;;;;24.89;52.18;100378.13;2060809;28;20346;-53
2022/07/07 04:11:52;;;;;;;;;;;;;;;24.89;52.17;100376.25;2058815;28;19967;-53
2022/07/07 04:12:54;;;;;;;;;;;;;;;24.89;52.06;100378.13;2059171;28;19917;-53
2022/07/07 04:13:54;;;;;;;;;;;;;;;24.89;52.16;100380.88;2060769;28;19913;-53
2022/07/07 04:14:55;;;;;;;;;;;;;;;24.88;52.07;100376.44;2058813;28;20476;-52
2022/07/07 04:15:56;;;;;;;;;;;;;;;24.88;52.15;100379.19;2060152;28;19918;-53
2022/07/07 04:16:57;;;;;;;;;;;;;;;24.89;52.10;100380.88;2051755;28;19924;-54
2022/07/07 04:17:57;;;;;;;;;;;;;;;24.88;52.01;100381.94;2051049;28;19922;-53
2022/07/07 04:18:57;;;;;;;;;;;;;;;24.89;52.04;100378.13;2061070;28;19922;-53
2022/07/07 04:19:58;;;;;;;;;;;;;;;24.88;52.31;100376.44;2059870;28;19967;-52
2022/07/07 04:20:59;;;;;;;;;;;;;;;24.88;52.18;100382.78;2060269;28;19921;-53
2022/07/07 04:21:59;;;;;;;;;;;;;;;24.88;52.09;100382.78;2064039;28;19918;-53
2022/07/07 04:22:59;;;;;;;;;;;;;;;24.87;52.17;100381.09;2061613;28;20231;-53
2022/07/07 04:24:00;;;;;;;;;;;;;;;24.89;52.28;100383.66;2063052;28;19952;-54
2022/07/07 04:25:00;;;;;;;;;;;;;;;24.88;52.31;100387.47;2060821;28;19925;-52
2022/07/07 04:26:00;;;;;;;;;;;;;;;24.88;52.28;100384.69;2062335;28;19917;-53
2022/07/07 04:27:01;;;;;;;;;;;;;;;24.89;52.11;100390.03;2063450;28;20592;-53
2022/07/07 04:28:01;;;;;;;;;;;;;;;24.88;52.24;100391.06;2062492;28;19976;-53
2022/07/07 04:29:02;;;;;;;;;;;;;;;24.89;52.13;100394.69;2054690;28;20276;-53
2022/07/07 04:30:03;;;;;;;;;;;;;;;24.88;52.06;100390.22;2060681;28;19914;-53
2022/07/07 04:31:03;;;;;;;;;;;;;;;24.87;52.17;100394.03;2060654;28;19917;-53
2022/07/07 04:32:04;;;;;;;;;;;;;;;24.88;52.15;100392.97;2064212;28;19921;-53
2022/07/07 04:33:04;;;;;;;;;;;;;;;24.87;52.24;100394.88;2061651;28;20252;-53
2022/07/07 04:34:04;;;;;;;;;;;;;;;24.88;52.28;100392.97;2063429;28;19917;-53
2022/07/07 04:35:05;;;;;;;;;;;;;;;24.87;52.39;100396.78;2062907;28;19964;-53
2022/07/07 04:36:05;;;;;;;;;;;;;;;24.86;52.14;100393.16;2061845;28;19984;-53
2022/07/07 04:37:06;;;;;;;;;;;;;;;24.87;52.42;100391.28;2061969;28;19951;-53
2022/07/07 04:38:06;;;;;;;;;;;;;;;24.87;52.24;100396.78;2063499;28;19934;-53
2022/07/07 04:39:08;;;;;;;;;;;;;;;24.87;52.19;100391.28;2063400;28;19917;-53
2022/07/07 04:40:09;;;;;;;;;;;;;;;24.87;52.15;100396.78;2060201;28;20564;-52
2022/07/07 04:41:09;;;;;;;;;;;;;;;24.87;52.34;100403.16;2062607;28;20008;-53
2022/07/07 04:42:09;;;;;;;;;;;;;;;24.86;52.13;100398.66;2063611;28;20321;-53
2022/07/07 04:43:09;;;;;;;;;;;;;;;24.87;52.29;100399.53;2062378;28;20371;-53
2022/07/07 04:44:10;;;;;;;;;;;;;;;24.87;52.39;100403.16;2063831;28;19924;-53
2022/07/07 04:45:10;;;;;;;;;;;;;;;24.86;52.19;100401.41;2061161;28;20183;-54
2022/07/07 04:46:10;;;;;;;;;;;;;;;24.87;52.42;100413.31;2062332;28;19928;-53
2022/07/07 04:47:11;;;;;;;;;;;;;;;24.86;52.30;100401.41;2063716;28;19921;-53
2022/07/07 04:48:11;;;;;;;;;;;;;;;24.86;52.40;100400.56;2062714;28;19975;-53
2022/07/07 04:49:11;;;;;;;;;;;;;;;24.85;52.24;100405.22;2051908;28;20196;-54
2022/07/07 04:50:12;;;;;;;;;;;;;;;24.86;52.16;100411.59;2055417;28;19914;-53
2022/07/07 04:51:13;;;;;;;;;;;;;;;24.87;52.38;100413.31;2063127;28;20971;-53
2022/07/07 04:52:14;;;;;;;;;;;;;;;24.86;52.23;100414.34;2065178;28;19999;-53
2022/07/07 04:53:14;;;;;;;;;;;;;;;24.86;52.37;100417.09;2063227;28;21777;-53
2022/07/07 04:54:14;;;;;;;;;;;;;;;24.86;52.36;100411.59;2066329;28;19921;-53
2022/07/07 04:55:15;;;;;;;;;;;;;;;24.85;52.41;100415.41;2063570;28;19924;-53
2022/07/07 04:56:15;;;;;;;;;;;;;;;24.85;52.30;100416.25;2060561;28;19924;-53
2022/07/07 04:57:16;;;;;;;;;;;;;;;24.85;52.19;100412.66;2063822;28;20379;-53
2022/07/07 04:58:16;;;;;;;;;;;;;;;24.84;52.31;100414.50;2062208;28;19921;-53
2022/07/07 04:59:16;;;;;;;;;;;;;;;24.85;52.20;100415.41;2062326;28;20068;-53
2022/07/07 05:00:17;;;;;;;;;;;;;;;24.86;52.22;100417.09;2064428;28;19937;-53
2022/07/07 05:01:17;;;;;;;;;;;;;;;24.85;52.29;100416.25;2061286;28;20008;-53
2022/07/07 05:02:18;;;;;;;;;;;;;;;24.85;52.54;100426.44;2060732;28;20235;-53
2022/07/07 05:03:18;;;;;;;;;;;;;;;24.85;52.33;100413.50;2063333;28;19913;-53
2022/07/07 05:04:18;;;;;;;;;;;;;;;24.86;52.50;100422.63;2060553;28;19925;-53
2022/07/07 05:05:19;;;;;;;;;;;;;;;24.86;52.49;100425.38;2062624;28;19979;-53
2022/07/07 05:06:19;;;;;;;;;;;;;;;24.86;52.27;100422.63;2060373;28;19980;-54
2022/07/07 05:07:19;;;;;;;;;;;;;;;24.86;52.46;100419.88;2055500;28;19949;-53
2022/07/07 05:08:20;;;;;;;;;;;;;;;24.87;52.23;100418.84;2060339;28;19960;-52
2022/07/07 05:09:20;;;;;;;;;;;;;;;24.86;52.29;100425.38;2064241;28;19941;-53
2022/07/07 05:10:20;;;;;;;;;;;;;;;24.88;52.27;100437.09;2056142;28;19906;-53
2022/07/07 05:11:21;;;;;;;;;;;;;;;24.86;52.24;100430.88;2057721;28;19910;-54